Time;durP1;ratioP1;P1;durP2;ratioP2;P2;SDS_P1;SDS_P2;PMS_P1;PMS_P2;Temp;Humidity;BMP_temperature;BMP_pressure;BME280_temperature;BME280_humidity;BME280_pressure;Samples;Min_cycle;Max_cycle;Signal;HPM_P1;HPM_P2
2021/04/23 00:00:54;;;;;;;2.55;1.90;;;19.70;71.00;;;;;;5074799;28;20016;-70
2021/04/23 00:03:41;;;;;;;1.48;1.38;;;19.70;70.90;;;;;;5074185;28;20008;-70
2021/04/23 00:06:46;;;;;;;2.30;1.52;;;19.60;70.80;;;;;;5078253;28;20416;-70
2021/04/23 00:09:27;;;;;;;2.50;1.92;;;19.60;70.80;;;;;;5058085;28;20473;-69
2021/04/23 00:11:59;;;;;;;2.50;1.88;;;19.60;71.40;;;;;;5077035;28;20040;-69
2021/04/23 00:14:29;;;;;;;4.72;1.77;;;19.60;70.70;;;;;;5074164;28;20501;-69
2021/04/23 00:16:56;;;;;;;2.47;1.70;;;19.60;70.60;;;;;;5076811;28;20024;-69
2021/04/23 00:19:24;;;;;;;2.28;1.60;;;19.60;70.60;;;;;;5078198;28;20707;-69
2021/04/23 00:21:52;;;;;;;2.17;1.92;;;19.60;70.60;;;;;;5073845;28;20106;-69
2021/04/23 00:24:18;;;;;;;2.28;1.50;;;19.60;70.60;;;;;;5077345;28;20034;-69
2021/04/23 00:26:45;;;;;;;2.20;1.80;;;19.60;70.70;;;;;;5075679;28;20375;-69
2021/04/23 00:29:13;;;;;;;1.70;1.60;;;19.60;70.70;;;;;;5078199;28;20032;-69
2021/04/23 00:31:41;;;;;;;2.13;1.98;;;19.60;70.70;;;;;;5075304;28;20044;-69
2021/04/23 00:34:07;;;;;;;3.03;2.40;;;19.60;70.70;;;;;;5078156;28;20023;-69
2021/04/23 00:36:34;;;;;;;3.45;2.50;;;19.60;70.70;;;;;;5081530;28;20021;-69
2021/04/23 00:39:01;;;;;;;2.95;2.50;;;19.60;70.70;;;;;;5076684;28;20012;-69
2021/04/23 00:41:31;;;;;;;5.13;3.17;;;19.60;70.70;;;;;;5077436;28;20020;-69
2021/04/23 00:43:58;;;;;;;6.25;3.88;;;19.50;70.70;;;;;;5074472;28;20020;-69
2021/04/23 00:46:30;;;;;;;8.13;4.88;;;19.50;70.60;;;;;;5073544;28;20640;-69
2021/04/23 00:48:59;;;;;;;8.95;5.70;;;19.50;70.50;;;;;;5084186;28;20032;-69
2021/04/23 00:51:44;;;;;;;8.07;5.07;;;19.50;70.50;;;;;;5072556;28;20027;-69
2021/04/23 00:54:11;;;;;;;6.40;4.93;;;19.50;70.40;;;;;;5076128;28;20089;-69
2021/04/23 00:56:40;;;;;;;6.28;4.82;;;19.50;70.30;;;;;;5073840;28;20040;-69
2021/04/23 00:59:10;;;;;;;6.32;4.53;;;19.50;70.30;;;;;;5075704;28;20027;-69
2021/04/23 01:01:42;;;;;;;6.53;4.45;;;19.50;70.20;;;;;;5078459;28;20100;-69
2021/04/23 01:04:16;;;;;;;7.60;4.65;;;19.40;70.10;;;;;;5075923;28;20713;-69
2021/04/23 01:06:43;;;;;;;7.57;4.75;;;19.40;70.00;;;;;;5077095;28;20077;-69
2021/04/23 01:09:13;;;;;;;9.68;6.00;;;19.40;70.00;;;;;;5073825;28;20033;-69
2021/04/23 01:11:41;;;;;;;7.32;5.82;;;19.40;70.00;;;;;;5078089;28;20455;-69
2021/04/23 01:14:08;;;;;;;9.35;6.32;;;19.40;70.00;;;;;;5074646;28;20019;-69
2021/04/23 01:16:36;;;;;;;8.25;5.68;;;19.40;70.00;;;;;;5073083;28;20042;-69
2021/04/23 01:19:05;;;;;;;10.57;6.25;;;19.40;70.00;;;;;;5077030;28;20016;-69
2021/04/23 01:21:33;;;;;;;10.52;6.10;;;19.40;70.00;;;;;;5073888;28;20075;-69
2021/04/23 01:24:05;;;;;;;8.40;5.10;;;19.40;70.00;;;;;;5078377;28;20039;-69
2021/04/23 01:26:41;;;;;;;7.07;4.90;;;19.40;69.90;;;;;;5071740;28;20418;-69
2021/04/23 01:29:10;;;;;;;7.40;4.57;;;19.40;69.80;;;;;;5077625;28;20036;-69
2021/04/23 01:31:38;;;;;;;6.82;4.30;;;19.40;69.70;;;;;;5073857;28;20767;-69
2021/04/23 01:34:16;;;;;;;7.68;4.10;;;19.30;69.70;;;;;;5079772;28;20021;-69
2021/04/23 01:36:44;;;;;;;7.65;3.85;;;19.30;69.70;;;;;;5074998;28;20017;-69
2021/04/23 01:39:15;;;;;;;8.45;4.40;;;19.30;69.80;;;;;;5074488;28;20516;-69
2021/04/23 01:41:44;;;;;;;9.25;3.78;;;19.30;70.00;;;;;;5076223;28;20560;-69
2021/04/23 01:44:12;;;;;;;7.50;3.53;;;19.30;70.10;;;;;;5074447;28;20043;-69
2021/04/23 01:46:39;;;;;;;6.75;3.80;;;19.30;70.30;;;;;;5073854;28;20028;-69
2021/04/23 01:49:12;;;;;;;10.23;4.65;;;19.30;70.40;;;;;;5074208;28;20036;-69
2021/04/23 01:51:46;;;;;;;7.32;3.78;;;19.30;70.50;;;;;;5068996;28;20016;-69
2021/04/23 01:54:14;;;;;;;8.73;3.53;;;19.20;70.60;;;;;;5077983;28;20099;-69
2021/04/23 01:56:41;;;;;;;6.47;3.85;;;19.20;70.70;;;;;;5077097;28;20660;-69
2021/04/23 01:59:08;;;;;;;3.97;3.33;;;19.30;71.10;;;;;;5077938;28;20020;-69
2021/04/23 02:01:37;;;;;;;6.20;3.35;;;19.30;71.00;;;;;;5076283;28;20484;-69
2021/04/23 02:04:06;;;;;;;9.32;3.97;;;19.30;71.00;;;;;;5073128;28;20020;-70
2021/04/23 02:06:34;;;;;;;7.38;3.45;;;19.20;70.90;;;;;;5076783;28;20020;-69
2021/04/23 02:09:01;;;;;;;6.53;2.80;;;19.20;71.00;;;;;;5073419;28;20538;-69
2021/04/23 02:11:28;;;;;;;7.78;3.58;;;19.20;71.20;;;;;;5072451;28;20048;-70
2021/04/23 02:13:57;;;;;;;10.13;3.80;;;19.20;71.20;;;;;;5074154;28;20021;-69
2021/04/23 02:16:24;;;;;;;3.97;3.42;;;19.20;71.30;;;;;;5073559;28;20378;-69
2021/04/23 02:18:53;;;;;;;9.13;3.72;;;19.30;71.40;;;;;;5076793;28;20024;-69
2021/04/23 02:21:19;;;;;;;8.13;3.25;;;19.20;71.50;;;;;;5072521;28;20473;-69
2021/04/23 02:23:48;;;;;;;9.77;3.42;;;19.20;71.60;;;;;;5072457;28;20463;-69
2021/04/23 02:26:16;;;;;;;8.32;3.30;;;19.20;71.60;;;;;;5077657;28;20016;-70
2021/04/23 02:28:43;;;;;;;7.63;3.17;;;19.20;71.60;;;;;;5077844;28;20028;-69
2021/04/23 02:31:13;;;;;;;6.32;3.30;;;19.20;71.60;;;;;;5075426;28;20136;-70
2021/04/23 02:33:42;;;;;;;6.60;3.55;;;19.20;71.70;;;;;;5075423;28;20020;-69
2021/04/23 02:36:10;;;;;;;9.70;4.53;;;19.20;71.70;;;;;;5071998;28;20067;-69
2021/04/23 02:38:37;;;;;;;9.98;3.63;;;19.20;71.80;;;;;;5076777;28;20027;-69
2021/04/23 02:41:05;;;;;;;6.45;3.47;;;19.20;71.80;;;;;;5073835;28;20107;-69
2021/04/23 02:43:35;;;;;;;12.30;4.32;;;19.20;71.80;;;;;;5075265;28;20459;-70
2021/04/23 02:46:04;;;;;;;7.75;5.05;;;19.30;71.90;;;;;;5074577;28;20004;-69
2021/04/23 02:48:35;;;;;;;10.45;4.60;;;19.20;71.90;;;;;;5072541;28;20465;-71
2021/04/23 02:51:10;;;;;;;9.82;5.25;;;19.20;71.90;;;;;;5076192;28;20020;-69
2021/04/23 02:53:37;;;;;;;8.27;4.25;;;19.20;71.90;;;;;;5074085;28;20107;-69
2021/04/23 02:56:06;;;;;;;9.07;4.40;;;19.30;72.10;;;;;;5081455;28;20028;-69
2021/04/23 02:58:34;;;;;;;9.90;4.38;;;19.20;72.10;;;;;;5078086;28;20393;-69
2021/04/23 03:01:06;;;;;;;10.55;4.30;;;19.30;72.80;;;;;;5080049;28;20074;-69
2021/04/23 03:03:32;;;;;;;11.82;5.05;;;19.30;72.20;;;;;;5075206;28;20131;-69
2021/04/23 03:05:59;;;;;;;10.93;4.93;;;19.30;72.10;;;;;;5075917;28;20376;-69
2021/04/23 03:08:27;;;;;;;11.45;6.43;;;19.30;72.00;;;;;;5079939;28;20025;-69
2021/04/23 03:11:00;;;;;;;13.75;9.43;;;19.30;72.00;;;;;;5077658;28;20020;-69
2021/04/23 03:13:29;;;;;;;17.38;12.15;;;19.20;71.90;;;;;;5076422;28;20078;-69
2021/04/23 03:15:57;;;;;;;16.05;11.07;;;19.20;71.90;;;;;;5086152;28;20440;-69
2021/04/23 03:18:25;;;;;;;12.88;8.55;;;19.20;71.80;;;;;;5076454;28;20054;-69
2021/04/23 03:20:55;;;;;;;10.85;6.53;;;19.20;71.70;;;;;;5079505;28;20012;-69
2021/04/23 03:23:22;;;;;;;13.60;6.57;;;19.30;71.70;;;;;;5077821;28;20016;-69
2021/04/23 03:25:49;;;;;;;9.52;5.47;;;19.20;72.10;;;;;;5077912;28;20078;-69
2021/04/23 03:28:16;;;;;;;8.73;4.40;;;19.20;71.70;;;;;;5076435;28;20806;-69
2021/04/23 03:30:45;;;;;;;10.02;4.07;;;19.20;71.70;;;;;;5074996;28;20055;-69
2021/04/23 03:33:13;;;;;;;11.15;4.72;;;19.20;71.80;;;;;;5078485;28;20650;-69
2021/04/23 03:35:44;;;;;;;7.05;4.10;;;19.20;71.80;;;;;;5085538;28;20423;-69
2021/04/23 03:38:11;;;;;;;12.85;4.18;;;19.20;71.80;;;;;;5078773;28;20025;-69
2021/04/23 03:40:39;;;;;;;12.38;4.38;;;19.20;71.80;;;;;;5076290;28;20020;-69
2021/04/23 03:43:07;;;;;;;10.23;4.10;;;19.20;71.80;;;;;;5077777;28;20467;-69
2021/04/23 03:45:34;;;;;;;7.90;4.30;;;19.20;71.70;;;;;;5075961;28;20024;-70
2021/04/23 03:48:02;;;;;;;7.65;3.70;;;19.20;71.70;;;;;;5078127;28;20098;-70
2021/04/23 03:50:31;;;;;;;9.13;4.18;;;19.20;71.70;;;;;;5074901;28;20017;-70
2021/04/23 03:52:58;;;;;;;11.55;3.95;;;19.20;71.60;;;;;;5076046;28;20021;-70
2021/04/23 03:55:31;;;;;;;6.97;3.22;;;19.20;71.30;;;;;;5079206;28;20024;-69
2021/04/23 03:57:59;;;;;;;8.73;3.45;;;19.10;71.00;;;;;;5070401;28;20054;-69
2021/04/23 04:00:33;;;;;;;8.27;3.25;;;19.10;70.90;;;;;;5078952;28;20021;-72
2021/04/23 04:02:59;;;;;;;6.55;3.38;;;19.10;70.90;;;;;;5078633;28;20048;-69
2021/04/23 04:05:26;;;;;;;10.35;3.10;;;19.10;71.00;;;;;;5080770;28;20028;-70
2021/04/23 04:07:53;;;;;;;9.23;3.92;;;19.10;71.00;;;;;;5085036;28;20390;-71
2021/04/23 04:10:20;;;;;;;10.00;4.80;;;19.10;71.00;;;;;;5084185;28;20463;-70
2021/04/23 04:12:47;;;;;;;17.85;8.48;;;19.10;71.00;;;;;;5085027;28;20028;-71
2021/04/23 04:15:15;;;;;;;13.38;7.93;;;19.10;71.00;;;;;;5084578;28;20077;-72
2021/04/23 04:17:42;;;;;;;11.38;7.30;;;19.10;71.20;;;;;;5087645;28;20016;-70
2021/04/23 04:20:13;;;;;;;11.93;6.30;;;19.10;71.60;;;;;;5082097;28;20477;-71
2021/04/23 04:22:40;;;;;;;7.75;4.93;;;19.10;71.40;;;;;;5082651;28;20020;-71
2021/04/23 04:25:15;;;;;;;9.05;5.15;;;19.10;71.40;;;;;;5082473;28;20029;-71
2021/04/23 04:27:42;;;;;;;9.60;4.10;;;19.10;71.30;;;;;;5066326;28;20479;-69
2021/04/23 04:30:10;;;;;;;9.93;4.05;;;19.10;71.40;;;;;;5079171;28;20032;-72
2021/04/23 04:32:38;;;;;;;9.95;3.63;;;19.10;71.40;;;;;;5080545;28;20115;-71
2021/04/23 04:35:07;;;;;;;9.95;4.20;;;19.10;71.30;;;;;;5085293;28;20036;-72
2021/04/23 04:37:33;;;;;;;6.40;3.30;;;19.10;71.20;;;;;;5084243;28;20046;-71
2021/04/23 04:40:00;;;;;;;8.10;3.47;;;19.10;71.00;;;;;;5084204;28;20031;-71
2021/04/23 04:42:28;;;;;;;9.95;3.28;;;19.10;70.90;;;;;;5083311;28;20043;-71
2021/04/23 04:45:00;;;;;;;7.20;3.17;;;19.10;70.90;;;;;;5081436;28;20016;-71
2021/04/23 04:47:31;;;;;;;9.40;3.90;;;19.10;71.00;;;;;;5078734;28;20099;-71
2021/04/23 04:49:59;;;;;;;8.13;3.10;;;19.00;70.90;;;;;;5079752;28;20040;-70
2021/04/23 04:52:27;;;;;;;6.65;2.85;;;19.00;70.90;;;;;;5077476;28;20103;-70
2021/04/23 04:54:53;;;;;;;7.35;3.17;;;19.00;70.80;;;;;;5077854;28;20028;-71
2021/04/23 04:57:21;;;;;;;10.98;3.85;;;19.00;70.60;;;;;;5078083;28;20016;-70
2021/04/23 04:59:48;;;;;;;6.53;2.47;;;19.00;70.70;;;;;;5080036;28;20475;-71
2021/04/23 05:02:24;;;;;;;6.97;3.17;;;19.00;70.80;;;;;;5077114;28;20020;-72
2021/04/23 05:04:51;;;;;;;5.72;3.08;;;19.00;70.90;;;;;;5076362;28;20009;-72
2021/04/23 05:07:18;;;;;;;6.85;3.03;;;19.00;70.80;;;;;;5076644;28;20032;-71
2021/04/23 05:09:44;;;;;;;8.38;3.33;;;19.00;70.90;;;;;;5080924;28;20020;-71
2021/04/23 05:12:11;;;;;;;7.05;2.45;;;19.00;70.80;;;;;;5076193;28;20017;-71
2021/04/23 05:14:37;;;;;;;9.02;2.85;;;19.00;70.90;;;;;;5064985;28;20028;-72
2021/04/23 05:17:04;;;;;;;9.63;2.97;;;19.00;70.90;;;;;;5078793;28;20037;-71
2021/04/23 05:19:30;;;;;;;8.65;3.05;;;19.00;70.90;;;;;;5076306;28;20039;-72
2021/04/23 05:21:57;;;;;;;5.22;2.55;;;19.00;70.90;;;;;;5081319;28;20017;-73
2021/04/23 05:24:23;;;;;;;5.70;2.72;;;19.00;70.90;;;;;;5078603;28;20016;-72
2021/04/23 05:26:50;;;;;;;7.72;2.92;;;19.00;70.90;;;;;;5078740;28;20024;-72
2021/04/23 05:29:16;;;;;;;9.57;3.97;;;19.00;70.90;;;;;;5076702;28;20036;-73
2021/04/23 05:31:43;;;;;;;10.25;3.50;;;19.00;70.90;;;;;;5082607;28;20055;-72
2021/04/23 05:34:10;;;;;;;9.07;3.22;;;19.00;70.80;;;;;;5083089;28;20971;-72
2021/04/23 05:36:37;;;;;;;10.25;3.75;;;19.00;70.80;;;;;;5083209;28;20479;-72
2021/04/23 05:39:05;;;;;;;6.30;3.65;;;19.00;70.80;;;;;;5079400;28;20056;-72
2021/04/23 05:41:31;;;;;;;5.07;3.50;;;19.00;71.00;;;;;;5078950;28;20025;-71
2021/04/23 05:43:58;;;;;;;12.35;3.83;;;19.00;70.90;;;;;;5081310;28;20040;-72
2021/04/23 05:46:24;;;;;;;7.57;3.55;;;19.00;70.90;;;;;;5081868;28;20070;-72
2021/04/23 05:48:51;;;;;;;10.90;4.30;;;19.10;71.00;;;;;;5082361;28;20054;-72
2021/04/23 05:51:18;;;;;;;7.30;3.25;;;19.00;70.80;;;;;;5080626;28;20020;-72
2021/04/23 05:53:44;;;;;;;9.98;3.03;;;19.00;70.80;;;;;;5082105;28;20064;-72
2021/04/23 05:56:11;;;;;;;10.02;3.28;;;19.10;70.80;;;;;;5080494;28;20375;-72
2021/04/23 05:58:37;;;;;;;10.55;3.83;;;19.10;70.60;;;;;;5084214;28;20433;-72
2021/04/23 06:01:04;;;;;;;6.38;3.30;;;19.10;70.60;;;;;;5083991;28;20077;-72
2021/04/23 06:03:31;;;;;;;9.27;3.72;;;19.00;70.40;;;;;;5083212;28;20036;-72
2021/04/23 06:05:57;;;;;;;6.22;2.50;;;19.10;70.50;;;;;;5080434;28;20091;-73
2021/04/23 06:08:24;;;;;;;6.68;3.22;;;19.10;70.60;;;;;;5078124;28;20036;-72
2021/04/23 06:10:50;;;;;;;8.10;2.88;;;19.10;70.60;;;;;;5081970;28;20027;-72
2021/04/23 06:13:17;;;;;;;3.38;2.88;;;19.00;70.40;;;;;;5066742;28;20028;-72
2021/04/23 06:15:44;;;;;;;5.93;3.10;;;19.10;70.60;;;;;;5082757;28;20073;-72
2021/04/23 06:18:12;;;;;;;9.48;3.53;;;19.10;70.50;;;;;;5082219;28;20547;-72
2021/04/23 06:20:40;;;;;;;11.15;3.60;;;19.10;70.50;;;;;;5075926;28;20402;-72
2021/04/23 06:23:07;;;;;;;10.60;3.75;;;19.10;70.60;;;;;;5080980;28;20486;-72
2021/04/23 06:25:35;;;;;;;9.02;3.90;;;19.20;70.80;;;;;;5076124;28;20024;-71
2021/04/23 06:28:03;;;;;;;10.30;3.20;;;19.10;70.80;;;;;;5082089;28;20021;-72
2021/04/23 06:30:34;;;;;;;11.00;4.47;;;19.20;70.90;;;;;;5083082;28;20044;-72
2021/04/23 06:33:25;;;;;;;10.93;3.65;;;19.20;71.10;;;;;;5082327;28;20020;-72
2021/04/23 06:35:52;;;;;;;10.15;4.75;;;19.20;71.20;;;;;;5087772;28;20024;-72
2021/04/23 06:38:18;;;;;;;6.05;3.35;;;19.20;71.30;;;;;;5083678;28;20524;-72
2021/04/23 06:40:45;;;;;;;13.45;4.68;;;19.20;71.20;;;;;;5087524;28;20099;-72
2021/04/23 06:43:13;;;;;;;11.85;3.80;;;19.20;71.30;;;;;;5084311;28;20051;-72
2021/04/23 06:45:39;;;;;;;7.63;3.42;;;19.30;71.40;;;;;;5071328;28;20138;-72
2021/04/23 06:48:11;;;;;;;8.27;3.53;;;19.30;71.30;;;;;;5085318;28;20040;-72
2021/04/23 06:50:38;;;;;;;7.82;3.08;;;19.30;71.30;;;;;;5081908;28;20070;-72
2021/04/23 06:53:04;;;;;;;10.10;4.07;;;19.30;71.20;;;;;;5086970;28;20016;-72
2021/04/23 06:55:31;;;;;;;12.68;3.40;;;19.30;71.20;;;;;;5083223;28;20420;-72
2021/04/23 06:57:58;;;;;;;7.25;3.13;;;19.40;71.10;;;;;;5086734;28;20024;-72
2021/04/23 07:00:28;;;;;;;7.10;3.78;;;19.40;71.10;;;;;;5087427;28;20027;-71
2021/04/23 07:02:55;;;;;;;9.73;3.88;;;19.40;71.10;;;;;;5084178;28;20020;-72
2021/04/23 07:05:22;;;;;;;8.82;4.07;;;19.40;71.00;;;;;;5087116;28;20016;-72
2021/04/23 07:07:49;;;;;;;7.60;3.55;;;19.40;71.00;;;;;;5082429;28;20024;-72
2021/04/23 07:10:18;;;;;;;7.75;3.20;;;19.50;71.00;;;;;;5079363;28;20020;-72
2021/04/23 07:12:45;;;;;;;8.77;3.25;;;19.50;71.00;;;;;;5082929;28;20020;-72
2021/04/23 07:15:15;;;;;;;11.52;4.65;;;19.50;71.60;;;;;;5084403;28;20020;-72
2021/04/23 07:17:43;;;;;;;8.85;2.83;;;19.50;70.90;;;;;;5083435;28;20031;-72
2021/04/23 07:20:11;;;;;;;7.07;3.00;;;19.50;70.90;;;;;;5082633;28;20110;-72
2021/04/23 07:22:38;;;;;;;7.55;3.15;;;19.60;70.90;;;;;;5083229;28;20031;-72
2021/04/23 07:25:06;;;;;;;8.43;3.33;;;19.60;70.90;;;;;;5085017;28;20060;-72
2021/04/23 07:27:35;;;;;;;6.03;3.10;;;19.60;70.90;;;;;;5080586;28;20125;-72
2021/04/23 07:30:07;;;;;;;14.88;3.95;;;19.60;70.90;;;;;;5085462;28;20072;-72
2021/04/23 07:32:34;;;;;;;8.10;3.08;;;19.70;71.00;;;;;;5086085;28;20039;-71
2021/04/23 07:35:00;;;;;;;9.52;3.53;;;19.70;71.00;;;;;;5082454;28;20441;-72
2021/04/23 07:37:27;;;;;;;9.13;3.45;;;19.70;71.00;;;;;;5088694;28;20491;-72
2021/04/23 07:39:53;;;;;;;5.63;3.10;;;19.70;71.00;;;;;;5080547;28;20099;-72
2021/04/23 07:42:20;;;;;;;12.23;3.92;;;19.70;71.00;;;;;;5083424;28;20493;-72
2021/04/23 07:44:47;;;;;;;18.80;4.75;;;19.80;71.00;;;;;;5086063;28;20055;-72
2021/04/23 07:47:14;;;;;;;6.72;2.97;;;19.80;71.00;;;;;;5083121;28;20028;-72
2021/04/23 07:49:42;;;;;;;5.57;2.92;;;19.80;70.90;;;;;;5084157;28;20385;-72
2021/04/23 07:52:08;;;;;;;4.22;2.50;;;19.80;70.90;;;;;;5084759;28;20024;-72
2021/04/23 07:54:35;;;;;;;9.65;3.58;;;19.80;70.80;;;;;;5084139;28;20032;-71
2021/04/23 07:57:02;;;;;;;7.90;3.80;;;19.90;70.80;;;;;;5085336;28;20107;-72
2021/04/23 07:59:29;;;;;;;7.75;3.63;;;19.90;70.80;;;;;;5084215;28;20368;-72
2021/04/23 08:01:56;;;;;;;6.03;2.92;;;19.90;70.70;;;;;;5082049;28;20039;-71
2021/04/23 08:04:24;;;;;;;8.23;3.15;;;20.00;70.60;;;;;;5079940;28;20019;-72
2021/04/23 08:06:51;;;;;;;7.40;3.05;;;20.00;70.50;;;;;;5083258;28;20044;-72
2021/04/23 08:09:17;;;;;;;11.35;3.38;;;20.00;70.40;;;;;;5081878;28;20036;-72
2021/04/23 08:11:44;;;;;;;10.77;3.53;;;20.00;70.30;;;;;;5083499;28;20106;-72
2021/04/23 08:14:10;;;;;;;6.97;3.17;;;20.10;70.20;;;;;;5084688;28;20027;-71
2021/04/23 08:16:37;;;;;;;10.98;3.17;;;20.10;70.10;;;;;;5086133;28;20027;-72
2021/04/23 08:19:03;;;;;;;8.55;3.08;;;20.10;70.10;;;;;;5083341;28;20020;-71
2021/04/23 08:21:30;;;;;;;8.02;3.83;;;20.20;70.20;;;;;;5085797;28;20031;-71
2021/04/23 08:23:56;;;;;;;6.80;3.22;;;20.20;70.00;;;;;;5081892;28;20835;-71
2021/04/23 08:26:24;;;;;;;11.70;2.90;;;20.20;69.80;;;;;;5081409;28;20035;-71
2021/04/23 08:28:51;;;;;;;9.90;3.83;;;20.20;69.60;;;;;;5081599;28;20040;-72
2021/04/23 08:31:18;;;;;;;6.78;2.85;;;20.30;69.70;;;;;;5082320;28;20077;-71
2021/04/23 08:33:44;;;;;;;6.25;2.83;;;20.30;69.70;;;;;;5080581;28;20043;-72
2021/04/23 08:36:11;;;;;;;6.57;3.35;;;20.40;69.80;;;;;;5061836;28;20070;-72
2021/04/23 08:38:37;;;;;;;8.23;3.40;;;20.40;69.90;;;;;;5083340;28;20020;-72
2021/04/23 08:41:04;;;;;;;11.48;3.17;;;20.50;69.70;;;;;;5084671;28;20017;-72
2021/04/23 08:43:30;;;;;;;12.73;3.75;;;20.50;69.30;;;;;;5082037;28;20129;-72
2021/04/23 08:45:57;;;;;;;8.48;3.30;;;20.50;68.80;;;;;;5085885;28;20020;-72
2021/04/23 08:48:24;;;;;;;6.25;2.83;;;20.60;68.60;;;;;;5080443;28;20039;-71
2021/04/23 08:50:53;;;;;;;7.43;2.85;;;20.60;68.40;;;;;;5081342;28;20380;-71
2021/04/23 08:53:20;;;;;;;11.35;4.20;;;20.60;68.20;;;;;;5080813;28;20016;-72
2021/04/23 08:55:46;;;;;;;8.43;3.35;;;20.60;68.10;;;;;;5083967;28;20046;-72
2021/04/23 08:58:14;;;;;;;9.45;3.05;;;20.70;68.10;;;;;;5082264;28;20020;-72
2021/04/23 09:00:42;;;;;;;8.57;3.50;;;20.70;67.90;;;;;;5068005;28;20032;-72
2021/04/23 09:03:10;;;;;;;12.15;3.47;;;20.80;67.70;;;;;;5082667;28;20471;-72
2021/04/23 09:05:37;;;;;;;14.48;3.95;;;20.80;67.60;;;;;;5079617;28;20020;-72
2021/04/23 09:08:06;;;;;;;11.90;3.63;;;20.80;67.40;;;;;;5082848;28;20121;-72
2021/04/23 09:10:36;;;;;;;7.00;2.83;;;20.90;67.30;;;;;;5081744;28;20525;-72
2021/04/23 09:13:11;;;;;;;10.50;4.32;;;21.00;67.20;;;;;;5083150;28;20106;-71
2021/04/23 09:15:40;;;;;;;10.82;4.22;;;21.00;67.10;;;;;;5084496;28;20032;-72
2021/04/23 09:18:15;;;;;;;12.00;3.45;;;21.10;66.80;;;;;;5078588;28;20028;-72
2021/04/23 09:20:46;;;;;;;5.07;2.47;;;21.10;66.40;;;;;;5082603;28;20424;-72
2021/04/23 09:23:22;;;;;;;7.97;3.03;;;21.20;66.40;;;;;;5078680;28;20158;-72
2021/04/23 09:25:55;;;;;;;8.43;3.50;;;21.30;66.40;;;;;;5082870;28;20100;-72
2021/04/23 09:28:40;;;;;;;9.80;4.03;;;21.30;66.00;;;;;;5084918;28;20023;-72
2021/04/23 09:31:39;;;;;;;8.50;3.20;;;21.30;65.70;;;;;;5082406;28;20071;-72
2021/04/23 09:34:07;;;;;;;10.55;3.75;;;21.40;65.70;;;;;;5038546;28;20023;-72
2021/04/23 09:36:40;;;;;;;7.55;3.17;;;21.50;65.60;;;;;;5082366;28;20484;-72
2021/04/23 09:39:22;;;;;;;6.57;3.20;;;21.50;65.20;;;;;;5084851;28;20065;-73
2021/04/23 09:41:54;;;;;;;8.25;3.10;;;21.60;64.70;;;;;;5080334;28;20051;-72
2021/04/23 09:44:31;;;;;;;10.50;3.65;;;21.50;64.60;;;;;;5078900;28;20363;-72
2021/04/23 09:47:04;;;;;;;12.45;4.47;;;21.60;64.60;;;;;;5080653;28;20102;-72
2021/04/23 09:49:32;;;;;;;6.47;3.05;;;21.60;64.60;;;;;;5081877;28;20597;-71
2021/04/23 09:52:02;;;;;;;7.05;3.75;;;21.70;64.60;;;;;;5081020;28;20025;-72
2021/04/23 09:54:29;;;;;;;10.85;4.25;;;21.80;64.60;;;;;;5082604;28;20483;-72
2021/04/23 09:56:57;;;;;;;6.60;3.40;;;21.80;64.40;;;;;;5081008;28;20024;-72
2021/04/23 09:59:29;;;;;;;12.43;3.75;;;21.80;64.40;;;;;;5082995;28;20012;-72
2021/04/23 10:02:05;;;;;;;7.32;2.80;;;21.80;64.20;;;;;;5081486;28;20067;-71
2021/04/23 10:04:35;;;;;;;5.47;2.75;;;21.90;64.30;;;;;;5081186;28;20027;-72
2021/04/23 10:07:08;;;;;;;9.20;3.33;;;21.90;64.20;;;;;;5084531;28;20035;-71
2021/04/23 10:09:56;;;;;;;8.85;3.60;;;21.90;64.00;;;;;;5084703;28;20060;-72
2021/04/23 10:12:39;;;;;;;10.60;3.25;;;22.00;63.90;;;;;;5074349;28;20031;-72
2021/04/23 10:15:19;;;;;;;7.20;2.92;;;22.00;63.80;;;;;;5084643;28;20560;-72
2021/04/23 10:17:49;;;;;;;9.07;3.25;;;22.00;63.70;;;;;;5084393;28;20028;-72
2021/04/23 10:20:19;;;;;;;7.55;2.92;;;22.00;63.50;;;;;;5083668;28;20433;-72
2021/04/23 10:22:46;;;;;;;11.43;3.58;;;22.00;63.40;;;;;;5081660;28;20028;-72
2021/04/23 10:25:13;;;;;;;10.90;4.28;;;22.00;63.30;;;;;;5085182;28;20013;-72
2021/04/23 10:27:42;;;;;;;8.93;3.13;;;22.00;63.00;;;;;;5082968;28;20032;-72
2021/04/23 10:30:24;;;;;;;6.40;2.80;;;22.10;63.10;;;;;;5089439;28;20040;-72
2021/04/23 10:32:56;;;;;;;10.35;3.28;;;22.10;62.90;;;;;;5086025;28;20058;-71
2021/04/23 10:35:24;;;;;;;7.47;2.80;;;22.10;62.70;;;;;;5081390;28;20440;-72
2021/04/23 10:37:52;;;;;;;6.68;3.30;;;22.20;62.70;;;;;;5083648;28;20017;-72
2021/04/23 10:40:22;;;;;;;7.15;4.05;;;22.20;62.60;;;;;;5082547;28;20019;-71
2021/04/23 10:42:55;;;;;;;6.32;2.95;;;22.20;62.60;;;;;;5084566;28;20112;-72
2021/04/23 10:45:41;;;;;;;10.25;3.60;;;22.20;62.40;;;;;;5081382;28;20050;-72
2021/04/23 10:48:13;;;;;;;10.32;3.75;;;22.30;62.40;;;;;;5088373;28;20395;-72
2021/04/23 10:50:49;;;;;;;12.98;3.30;;;22.30;62.10;;;;;;5088300;28;20479;-72
2021/04/23 10:53:31;;;;;;;8.73;3.42;;;22.30;62.10;;;;;;5086996;28;20024;-72
2021/04/23 10:56:00;;;;;;;7.28;3.53;;;22.40;62.10;;;;;;5085201;28;20034;-72
2021/04/23 10:58:29;;;;;;;8.05;3.85;;;22.40;62.00;;;;;;5086531;28;20035;-72
2021/04/23 11:00:58;;;;;;;6.20;2.80;;;22.40;61.80;;;;;;5086712;28;20016;-72
2021/04/23 11:03:31;;;;;;;10.30;3.38;;;22.50;61.70;;;;;;5085696;28;20511;-72
2021/04/23 11:06:26;;;;;;;6.60;2.50;;;22.50;61.60;;;;;;5070240;28;20726;-71
2021/04/23 11:09:03;;;;;;;5.15;3.10;;;22.60;61.50;;;;;;5082878;28;20033;-71
2021/04/23 11:11:34;;;;;;;12.75;3.60;;;22.60;61.30;;;;;;5083279;28;20077;-72
2021/04/23 11:14:18;;;;;;;9.30;4.80;;;22.70;61.20;;;;;;5086045;28;20043;-71
2021/04/23 11:16:46;;;;;;;9.82;3.20;;;22.80;60.80;;;;;;5082587;28;20044;-71
2021/04/23 11:19:21;;;;;;;11.07;2.72;;;22.80;60.60;;;;;;5085244;28;20024;-71
2021/04/23 11:21:49;;;;;;;12.43;4.35;;;22.80;60.60;;;;;;5084334;28;20031;-71
2021/04/23 11:24:27;;;;;;;9.45;3.08;;;22.90;60.60;;;;;;5084669;28;21021;-71
2021/04/23 11:29:22;;;;;;;10.43;3.20;;;23.00;60.00;;;;;;5085549;28;20583;-71
2021/04/23 11:32:13;;;;;;;13.05;4.10;;;23.00;59.70;;;;;;5085525;28;20129;-71
2021/04/23 11:34:44;;;;;;;10.20;3.45;;;23.10;59.70;;;;;;5082193;28;20027;-71
2021/04/23 11:37:14;;;;;;;7.03;2.50;;;23.10;59.50;;;;;;5083381;28;20016;-71
2021/04/23 11:39:44;;;;;;;5.30;2.60;;;23.10;59.50;;;;;;5085818;28;20040;-71
2021/04/23 11:42:11;;;;;;;5.80;2.40;;;23.10;59.50;;;;;;5084550;28;20572;-71
2021/04/23 11:44:49;;;;;;;11.32;2.97;;;23.20;59.60;;;;;;5081342;28;20884;-71
2021/04/23 11:47:40;;;;;;;6.35;3.65;;;23.20;59.40;;;;;;5085477;28;20051;-71
2021/04/23 11:50:34;;;;;;;9.13;2.95;;;23.20;59.30;;;;;;5068613;28;20391;-71
2021/04/23 11:53:10;;;;;;;6.22;2.95;;;23.20;59.40;;;;;;5080714;28;20027;-71
2021/04/23 11:55:45;;;;;;;7.18;2.63;;;23.30;59.30;;;;;;5075618;28;20047;-71
2021/04/23 11:58:14;;;;;;;10.07;3.10;;;23.30;59.20;;;;;;5080742;28;20070;-71
2021/04/23 12:00:46;;;;;;;10.38;3.17;;;23.30;59.20;;;;;;5084142;28;20434;-70
2021/04/23 12:03:15;;;;;;;9.23;2.70;;;23.40;59.10;;;;;;5082817;28;20020;-71
2021/04/23 12:05:47;;;;;;;8.43;2.70;;;23.40;59.10;;;;;;5083684;28;20050;-71
2021/04/23 12:08:16;;;;;;;7.78;3.63;;;23.40;59.00;;;;;;5078076;28;20045;-70
2021/04/23 12:10:46;;;;;;;10.20;3.30;;;23.40;58.90;;;;;;5086116;28;20346;-71
2021/04/23 12:13:15;;;;;;;6.47;2.92;;;23.40;58.90;;;;;;5085915;28;20023;-71
2021/04/23 12:15:44;;;;;;;8.65;3.75;;;23.40;58.70;;;;;;5083588;28;20020;-71
2021/04/23 12:18:12;;;;;;;9.48;3.42;;;23.40;58.60;;;;;;5083987;28;20043;-71
2021/04/23 12:20:49;;;;;;;6.78;3.35;;;23.50;58.60;;;;;;5080907;28;20021;-71
2021/04/23 12:23:24;;;;;;;7.18;2.95;;;23.50;58.60;;;;;;5083397;28;20099;-71
2021/04/23 12:25:55;;;;;;;6.03;2.95;;;23.50;58.50;;;;;;5083611;28;20015;-70
2021/04/23 12:28:33;;;;;;;6.82;3.15;;;23.50;58.40;;;;;;5080691;28;20038;-70
2021/04/23 12:31:10;;;;;;;8.85;3.35;;;23.50;58.40;;;;;;5082712;28;20044;-71
2021/04/23 12:33:45;;;;;;;4.68;2.50;;;23.50;58.50;;;;;;5085906;28;20027;-71
2021/04/23 12:36:17;;;;;;;6.03;2.70;;;23.60;58.50;;;;;;5082388;28;20016;-71
2021/04/23 12:38:48;;;;;;;7.40;2.42;;;23.60;58.30;;;;;;5082836;28;20077;-71
2021/04/23 12:41:18;;;;;;;8.65;3.25;;;23.60;58.20;;;;;;5081423;28;20024;-71
2021/04/23 12:43:45;;;;;;;5.30;2.50;;;23.70;58.30;;;;;;5085736;28;20060;-71
2021/04/23 12:46:24;;;;;;;5.68;2.97;;;23.70;58.20;;;;;;5082711;28;20049;-71
2021/04/23 12:49:01;;;;;;;8.60;2.97;;;23.70;58.20;;;;;;5084102;28;20036;-71
2021/04/23 12:51:29;;;;;;;11.73;3.60;;;23.70;58.30;;;;;;5083297;28;20020;-71
2021/04/23 12:53:56;;;;;;;13.52;3.60;;;23.60;58.40;;;;;;5081226;28;20025;-71
2021/04/23 12:56:25;;;;;;;11.00;3.85;;;23.60;58.60;;;;;;5083606;28;20366;-71
2021/04/23 12:58:53;;;;;;;9.27;3.28;;;23.60;58.80;;;;;;5082516;28;20021;-71